createdAt,value
2018-05-06T00:00:43.696Z,44.30
2018-05-06T00:03:11.305Z,44.20
2018-05-06T00:05:38.834Z,44.30
2018-05-06T00:08:06.361Z,44.30
2018-05-06T00:10:34.664Z,44.30
2018-05-06T00:13:02.920Z,44.40
2018-05-06T00:15:30.424Z,44.40
2018-05-06T00:17:57.930Z,44.20
2018-05-06T00:20:25.493Z,44.40
2018-05-06T00:22:53.001Z,44.20
2018-05-06T00:25:20.523Z,44.70
2018-05-06T00:27:48.071Z,44.20
2018-05-06T00:30:16.448Z,44.10
2018-05-06T00:32:44.016Z,44.10
2018-05-06T00:35:11.520Z,44.10
2018-05-06T00:37:39.016Z,44.20
2018-05-06T00:40:06.547Z,44.30
2018-05-06T00:42:34.812Z,44.20
2018-05-06T00:45:02.331Z,44.20
2018-05-06T00:47:29.872Z,44.20
2018-05-06T00:49:58.389Z,44.30
2018-05-06T00:52:25.867Z,44.30
2018-05-06T00:54:53.411Z,44.30
2018-05-06T00:57:21.763Z,44.20
2018-05-06T00:59:49.584Z,44.20
2018-05-06T01:02:17.091Z,44.30
2018-05-06T01:04:44.601Z,44.30
2018-05-06T01:07:12.103Z,44.50
2018-05-06T01:09:39.609Z,45.10
2018-05-06T01:12:07.235Z,44.60
2018-05-06T01:14:35.591Z,44.80
2018-05-06T01:17:03.096Z,44.80
2018-05-06T01:19:31.407Z,44.90
2018-05-06T01:21:58.896Z,44.80
2018-05-06T01:24:26.420Z,44.90
2018-05-06T01:26:53.911Z,45.00
2018-05-06T01:29:21.443Z,45.10
2018-05-06T01:31:48.934Z,45.20
2018-05-06T01:34:17.300Z,45.40
2018-05-06T01:36:44.788Z,45.30
2018-05-06T01:39:13.066Z,45.40
2018-05-06T01:41:40.562Z,45.90
2018-05-06T01:44:09.000Z,45.60
2018-05-06T01:46:36.479Z,45.50
2018-05-06T01:49:03.969Z,45.60
2018-05-06T01:51:33.017Z,45.70
2018-05-06T01:54:00.560Z,45.70
2018-05-06T01:56:28.855Z,45.80
2018-05-06T01:58:57.102Z,45.90
2018-05-06T02:01:24.601Z,45.90
2018-05-06T02:03:52.843Z,46.00
2018-05-06T02:06:20.467Z,45.90
2018-05-06T02:08:48.730Z,46.10
2018-05-06T02:11:16.281Z,46.00
2018-05-06T02:13:43.781Z,46.20
2018-05-06T02:16:11.265Z,46.20
2018-05-06T02:18:39.541Z,46.40
2018-05-06T02:21:07.069Z,46.30
2018-05-06T02:23:34.575Z,46.10
2018-05-06T02:26:02.119Z,46.40
2018-05-06T02:28:29.962Z,46.60
2018-05-06T02:30:57.447Z,46.70
2018-05-06T02:33:25.034Z,46.70
2018-05-06T02:35:52.766Z,46.70
2018-05-06T02:38:21.112Z,46.90
2018-05-06T02:40:48.605Z,46.80
2018-05-06T02:43:16.092Z,47.00
2018-05-06T02:45:44.400Z,47.10
2018-05-06T02:48:11.911Z,47.20
2018-05-06T02:50:39.424Z,47.20
2018-05-06T02:53:07.677Z,47.50
2018-05-06T02:55:35.197Z,47.40
2018-05-06T02:58:02.684Z,47.50
2018-05-06T03:00:30.341Z,47.30
2018-05-06T03:02:57.857Z,47.40
2018-05-06T03:05:25.433Z,47.60
2018-05-06T03:07:53.121Z,47.70
2018-05-06T03:10:21.361Z,47.70
2018-05-06T03:12:48.892Z,47.70
2018-05-06T03:15:17.515Z,48.10
2018-05-06T03:17:45.259Z,47.90
2018-05-06T03:20:12.742Z,48.10
2018-05-06T03:22:41.050Z,48.30
2018-05-06T03:25:08.624Z,48.30
2018-05-06T03:27:36.130Z,48.40
2018-05-06T03:30:03.608Z,48.90
2018-05-06T03:32:31.125Z,48.40
2018-05-06T03:34:58.672Z,48.60
2018-05-06T03:37:26.181Z,48.60
2018-05-06T03:39:53.698Z,48.70
2018-05-06T03:42:21.176Z,48.80
2018-05-06T03:44:48.772Z,48.90
2018-05-06T03:47:17.145Z,49.00
2018-05-06T03:49:45.513Z,49.00
2018-05-06T03:52:12.993Z,49.10
2018-05-06T03:54:40.557Z,49.30
2018-05-06T03:57:20.011Z,49.30
2018-05-06T04:00:00.144Z,49.40
2018-05-06T04:02:42.562Z,49.40
2018-05-06T04:05:10.095Z,49.40
2018-05-06T04:07:37.605Z,49.50
2018-05-06T04:10:05.126Z,49.60
2018-05-06T04:12:33.410Z,49.80
2018-05-06T04:15:01.009Z,49.80
2018-05-06T04:17:28.492Z,50.10
2018-05-06T04:19:56.037Z,49.80
2018-05-06T04:22:24.411Z,49.90
2018-05-06T04:24:52.077Z,49.90
2018-05-06T04:27:19.666Z,50.50
2018-05-06T04:29:47.157Z,50.00
2018-05-06T04:32:14.939Z,50.10
2018-05-06T04:34:42.439Z,50.20
2018-05-06T04:37:09.952Z,50.20
2018-05-06T04:39:37.861Z,50.30
2018-05-06T04:42:05.378Z,50.40
2018-05-06T04:44:32.862Z,50.40
2018-05-06T04:47:01.178Z,50.40
2018-05-06T04:49:28.865Z,50.30
2018-05-06T04:51:56.404Z,50.40
2018-05-06T04:54:23.883Z,50.50
2018-05-06T04:56:52.160Z,50.50
2018-05-06T04:59:19.744Z,51.10
2018-05-06T05:01:48.121Z,50.70
2018-05-06T05:04:15.644Z,50.60
2018-05-06T05:06:43.196Z,50.70
2018-05-06T05:09:10.775Z,50.80
2018-05-06T05:11:38.302Z,50.90
2018-05-06T05:14:06.600Z,50.70
2018-05-06T05:16:34.091Z,50.80
2018-05-06T05:19:01.947Z,50.70
2018-05-06T05:21:29.435Z,50.70
2018-05-06T05:23:57.733Z,50.70
2018-05-06T05:26:25.239Z,50.60
2018-05-06T05:28:52.729Z,50.70
2018-05-06T05:31:20.302Z,50.60
2018-05-06T05:33:47.801Z,50.50
2018-05-06T05:36:16.080Z,50.40
2018-05-06T05:38:44.870Z,50.30
2018-05-06T05:41:13.155Z,50.30
2018-05-06T05:43:40.656Z,50.30
2018-05-06T05:46:08.903Z,50.30
2018-05-06T05:48:36.433Z,50.20
2018-05-06T05:51:04.125Z,50.10
2018-05-06T05:53:31.744Z,50.10
2018-05-06T05:56:00.028Z,50.10
2018-05-06T05:58:28.311Z,50.00
2018-05-06T06:00:55.890Z,49.90
2018-05-06T06:03:23.450Z,49.70
2018-05-06T06:05:51.029Z,49.80
2018-05-06T06:08:18.516Z,49.60
2018-05-06T06:10:46.928Z,49.50
2018-05-06T06:13:14.492Z,49.40
2018-05-06T06:15:42.045Z,49.40
2018-05-06T06:18:10.339Z,49.10
2018-05-06T06:20:39.391Z,48.80
2018-05-06T06:23:06.879Z,48.80
2018-05-06T06:25:34.474Z,48.60
2018-05-06T06:28:01.995Z,48.60
2018-05-06T06:30:29.639Z,48.60
2018-05-06T06:32:57.909Z,48.80
2018-05-06T06:35:26.067Z,48.80
2018-05-06T06:37:53.570Z,48.50
2018-05-06T06:40:21.963Z,48.60
2018-05-06T06:42:50.214Z,48.60
2018-05-06T06:45:17.928Z,48.60
2018-05-06T06:47:46.200Z,48.30
2018-05-06T06:50:13.827Z,48.20
2018-05-06T06:52:41.623Z,48.00
2018-05-06T06:55:09.114Z,48.00
2018-05-06T06:57:36.634Z,48.00
2018-05-06T07:00:04.287Z,47.60
2018-05-06T07:02:32.563Z,47.70
2018-05-06T07:05:00.168Z,47.50
2018-05-06T07:07:27.834Z,47.10
2018-05-06T07:09:55.346Z,47.50
2018-05-06T07:12:22.858Z,47.30
2018-05-06T07:14:51.140Z,47.30
2018-05-06T07:17:19.525Z,47.10
2018-05-06T07:19:47.055Z,47.10
2018-05-06T07:22:14.781Z,47.10
2018-05-06T07:24:43.028Z,46.30
2018-05-06T07:27:10.586Z,46.20
2018-05-06T07:29:38.107Z,46.20
2018-05-06T07:32:06.476Z,45.70
2018-05-06T07:34:34.080Z,45.70
2018-05-06T07:37:02.344Z,44.80
2018-05-06T07:39:29.870Z,44.80
2018-05-06T07:41:57.408Z,44.80
2018-05-06T07:44:25.686Z,44.60
2018-05-06T07:46:53.970Z,44.60
2018-05-06T07:49:22.235Z,44.40
2018-05-06T07:51:49.830Z,43.80
2018-05-06T07:54:17.343Z,43.80
2018-05-06T07:56:44.832Z,44.00
2018-05-06T07:59:12.339Z,43.70
2018-05-06T08:01:39.830Z,42.80
2018-05-06T08:04:08.129Z,42.40
2018-05-06T08:06:35.624Z,42.40
2018-05-06T08:09:03.178Z,42.50
2018-05-06T08:11:30.945Z,42.90
2018-05-06T08:13:58.491Z,41.90
2018-05-06T08:16:26.838Z,41.70
2018-05-06T08:18:54.353Z,41.60
2018-05-06T08:21:22.647Z,41.00
2018-05-06T08:23:50.971Z,40.90
2018-05-06T08:26:18.506Z,40.90
2018-05-06T08:28:46.786Z,40.30
2018-05-06T08:31:15.149Z,40.20
2018-05-06T08:33:43.381Z,40.40
2018-05-06T08:36:10.911Z,40.40
2018-05-06T08:38:38.622Z,40.30
2018-05-06T08:41:06.981Z,40.90
2018-05-06T08:43:34.582Z,40.90
2018-05-06T08:46:03.236Z,41.00
2018-05-06T08:48:30.774Z,41.00
2018-05-06T08:50:58.975Z,40.50
2018-05-06T08:53:26.612Z,40.50
2018-05-06T08:55:54.215Z,39.00
2018-05-06T08:58:22.207Z,39.60
2018-05-06T09:00:49.815Z,38.80
2018-05-06T09:03:17.376Z,38.30
2018-05-06T09:05:44.904Z,38.50
2018-05-06T09:08:12.418Z,38.70
2018-05-06T09:10:40.001Z,39.00
2018-05-06T09:13:07.529Z,38.50
2018-05-06T09:15:35.298Z,37.30
2018-05-06T09:18:02.962Z,37.10
2018-05-06T09:20:30.652Z,37.00
2018-05-06T09:22:58.201Z,36.50
2018-05-06T09:25:26.696Z,36.60
2018-05-06T09:27:55.034Z,36.30
2018-05-06T09:30:22.566Z,36.30
2018-05-06T09:32:50.168Z,36.20
2018-05-06T09:35:17.675Z,36.00
2018-05-06T09:37:46.036Z,35.10
2018-05-06T09:40:14.244Z,34.80
2018-05-06T09:42:41.846Z,34.80
2018-05-06T09:45:10.287Z,33.80
2018-05-06T09:47:37.821Z,33.80
2018-05-06T09:50:05.670Z,33.30
2018-05-06T09:52:34.074Z,32.50
2018-05-06T09:55:02.430Z,32.40
2018-05-06T09:57:29.931Z,32.40
2018-05-06T09:59:57.553Z,32.10
2018-05-06T10:02:25.022Z,31.70
2018-05-06T10:04:52.811Z,31.30
2018-05-06T10:07:20.285Z,31.20
2018-05-06T10:09:48.194Z,30.70
2018-05-06T10:12:15.770Z,30.00
2018-05-06T10:14:44.057Z,29.80
2018-05-06T10:17:12.790Z,29.70
2018-05-06T10:19:41.455Z,29.70
2018-05-06T10:22:10.757Z,29.40
2018-05-06T10:24:39.164Z,29.10
2018-05-06T10:27:06.852Z,29.10
2018-05-06T10:29:34.475Z,29.20
2018-05-06T10:32:02.108Z,29.10
2018-05-06T10:34:29.742Z,28.90
2018-05-06T10:36:57.439Z,28.20
2018-05-06T10:39:25.219Z,28.50
2018-05-06T10:41:52.770Z,28.10
2018-05-06T10:44:20.307Z,28.00
2018-05-06T10:46:48.656Z,27.40
2018-05-06T10:49:16.264Z,27.30
2018-05-06T10:51:43.784Z,27.10
2018-05-06T10:54:11.462Z,27.00
2018-05-06T10:56:39.031Z,26.70
2018-05-06T10:59:06.541Z,26.60
2018-05-06T11:01:34.039Z,26.70
2018-05-06T11:04:01.915Z,26.30
2018-05-06T11:06:29.398Z,26.20
2018-05-06T11:08:57.728Z,26.20
2018-05-06T11:11:25.229Z,26.20
2018-05-06T11:13:52.740Z,26.10
2018-05-06T11:16:21.127Z,26.10
2018-05-06T11:18:49.484Z,26.10
2018-05-06T11:21:17.033Z,26.20
2018-05-06T11:23:44.550Z,26.30
2018-05-06T11:26:12.138Z,26.10
2018-05-06T11:28:39.658Z,25.80
2018-05-06T11:31:07.180Z,25.80
2018-05-06T11:33:36.311Z,25.50
2018-05-06T11:36:03.825Z,25.40
2018-05-06T11:38:31.598Z,25.60
2018-05-06T11:41:00.624Z,25.30
2018-05-06T11:43:29.181Z,25.40
2018-05-06T11:45:57.187Z,25.40
2018-05-06T11:48:24.774Z,25.50
2018-05-06T11:50:53.112Z,25.20
2018-05-06T11:53:20.853Z,25.20
2018-05-06T11:55:49.300Z,24.70
2018-05-06T11:58:17.951Z,24.40
2018-05-06T12:00:45.485Z,24.70
2018-05-06T12:03:13.007Z,24.90
2018-05-06T12:05:40.563Z,25.10
2018-05-06T12:08:08.147Z,24.70
2018-05-06T12:10:35.731Z,24.70
2018-05-06T12:13:03.256Z,24.90
2018-05-06T12:15:31.784Z,24.80
2018-05-06T12:17:59.283Z,24.70
2018-05-06T12:20:26.808Z,24.90
2018-05-06T12:22:54.607Z,24.90
2018-05-06T12:25:22.185Z,24.60
2018-05-06T12:27:49.743Z,24.60
2018-05-06T12:30:17.356Z,24.50
2018-05-06T12:32:44.887Z,24.60
2018-05-06T12:35:12.372Z,24.40
2018-05-06T12:37:39.890Z,24.50
2018-05-06T12:40:08.173Z,24.10
2018-05-06T12:42:35.685Z,24.10
2018-05-06T12:45:03.205Z,24.40
2018-05-06T12:47:30.739Z,24.60
2018-05-06T12:49:58.303Z,24.40
2018-05-06T12:52:26.341Z,24.50
2018-05-06T12:54:53.914Z,24.40
2018-05-06T12:57:21.585Z,24.40
2018-05-06T12:59:49.246Z,24.20
2018-05-06T13:02:16.825Z,24.20
2018-05-06T13:04:45.262Z,24.30
2018-05-06T13:07:13.537Z,24.30
2018-05-06T13:09:42.749Z,24.10
2018-05-06T13:12:10.572Z,24.10
2018-05-06T13:14:38.217Z,24.10
2018-05-06T13:17:05.834Z,24.10
2018-05-06T13:19:33.369Z,23.70
2018-05-06T13:22:00.955Z,23.70
2018-05-06T13:24:28.872Z,23.70
2018-05-06T13:26:56.420Z,23.90
2018-05-06T13:29:23.985Z,23.80
2018-05-06T13:31:51.811Z,24.00
2018-05-06T13:34:20.230Z,24.40
2018-05-06T13:36:47.762Z,24.00
2018-05-06T13:39:15.300Z,23.90
2018-05-06T13:41:42.840Z,24.10
2018-05-06T13:44:10.461Z,24.30
2018-05-06T13:46:37.991Z,24.40
2018-05-06T13:49:05.546Z,24.20
2018-05-06T13:51:33.831Z,24.30
2018-05-06T13:54:02.891Z,24.20
2018-05-06T13:56:30.408Z,24.20
2018-05-06T13:58:58.735Z,24.60
2018-05-06T14:01:26.395Z,24.60
2018-05-06T14:03:53.966Z,25.00
2018-05-06T14:06:21.498Z,25.20
2018-05-06T14:08:49.097Z,25.10
2018-05-06T14:11:16.626Z,25.20
2018-05-06T14:13:44.771Z,25.40
2018-05-06T14:16:12.277Z,25.30
2018-05-06T14:18:39.970Z,25.30
2018-05-06T14:21:07.631Z,25.30
2018-05-06T14:23:35.320Z,25.50
2018-05-06T14:26:02.876Z,25.50
2018-05-06T14:28:30.971Z,25.60
2018-05-06T14:30:58.662Z,25.30
2018-05-06T14:33:26.945Z,25.60
2018-05-06T14:35:54.510Z,25.60
2018-05-06T14:38:22.206Z,25.80
2018-05-06T14:40:50.507Z,26.00
2018-05-06T14:43:18.024Z,26.40
2018-05-06T14:45:45.652Z,26.20
2018-05-06T14:48:16.374Z,26.40
2018-05-06T14:50:44.734Z,26.80
2018-05-06T14:53:12.243Z,26.80
2018-05-06T14:55:40.545Z,26.60
2018-05-06T14:58:08.224Z,26.60
2018-05-06T15:00:35.703Z,26.40
2018-05-06T15:03:03.266Z,26.60
2018-05-06T15:05:30.787Z,26.90
2018-05-06T15:07:59.085Z,27.00
2018-05-06T15:10:26.833Z,27.00
2018-05-06T15:12:54.338Z,27.00
2018-05-06T15:15:23.294Z,27.10
2018-05-06T15:17:50.836Z,27.10
2018-05-06T15:20:19.110Z,27.20
2018-05-06T15:22:47.404Z,27.30
2018-05-06T15:25:15.700Z,27.50
2018-05-06T15:27:43.199Z,27.50
2018-05-06T15:30:10.720Z,27.30
2018-05-06T15:32:39.161Z,27.40
2018-05-06T15:35:06.657Z,27.90
2018-05-06T15:37:34.259Z,27.50
2018-05-06T15:40:02.753Z,28.00
2018-05-06T15:42:30.336Z,27.50
2018-05-06T15:44:59.457Z,27.50
2018-05-06T15:47:27.012Z,27.50
2018-05-06T15:49:55.288Z,27.90
2018-05-06T15:52:22.899Z,27.80
2018-05-06T15:54:50.449Z,28.20
2018-05-06T15:57:18.716Z,28.50
2018-05-06T15:59:46.333Z,28.40
2018-05-06T16:05:10.556Z,28.00
2018-05-06T16:07:38.044Z,28.50
2018-05-06T16:10:05.583Z,28.60
2018-05-06T16:12:33.857Z,29.10
2018-05-06T16:15:02.196Z,29.80
2018-05-06T16:17:29.817Z,29.20
2018-05-06T16:19:58.067Z,29.40
2018-05-06T16:22:25.688Z,29.30
2018-05-06T16:24:53.276Z,29.40
2018-05-06T16:27:20.846Z,29.60
2018-05-06T16:29:49.142Z,29.70
2018-05-06T16:32:16.639Z,29.70
2018-05-06T16:34:44.246Z,29.90
2018-05-06T16:37:11.775Z,29.60
2018-05-06T16:39:39.303Z,29.20
2018-05-06T16:42:07.654Z,29.30
2018-05-06T16:44:35.461Z,29.30
2018-05-06T16:47:02.997Z,29.30
2018-05-06T16:49:30.532Z,29.40
2018-05-06T16:51:58.043Z,29.70
2018-05-06T16:54:25.613Z,29.90
2018-05-06T16:56:53.213Z,30.00
2018-05-06T16:59:20.983Z,30.30
2018-05-06T17:01:48.665Z,30.60
2018-05-06T17:04:16.934Z,30.70
2018-05-06T17:06:44.940Z,31.30
2018-05-06T17:09:13.244Z,31.10
2018-05-06T17:11:41.509Z,31.20
2018-05-06T17:14:09.467Z,31.20
2018-05-06T17:16:37.444Z,31.20
2018-05-06T17:19:05.920Z,30.90
2018-05-06T17:21:33.968Z,30.80
2018-05-06T17:24:02.372Z,31.10
2018-05-06T17:26:30.148Z,31.10
2018-05-06T17:28:57.674Z,31.30
2018-05-06T17:31:25.215Z,31.50
2018-05-06T17:33:52.811Z,31.50
2018-05-06T17:36:20.740Z,31.70
2018-05-06T17:38:48.365Z,31.80
2018-05-06T17:41:15.983Z,31.70
2018-05-06T17:43:43.518Z,31.70
2018-05-06T17:46:11.139Z,31.90
2018-05-06T17:48:38.785Z,32.00
2018-05-06T17:51:07.110Z,31.90
2018-05-06T17:53:34.778Z,31.90
2018-05-06T17:56:02.358Z,31.90
2018-05-06T17:58:29.960Z,31.90
2018-05-06T18:00:57.608Z,32.40
2018-05-06T18:03:25.172Z,32.50
2018-05-06T18:05:52.797Z,32.50
2018-05-06T18:08:21.552Z,33.20
2018-05-06T18:10:49.070Z,32.60
2018-05-06T18:13:17.164Z,32.60
2018-05-06T18:15:45.585Z,33.00
2018-05-06T18:18:13.366Z,32.70
2018-05-06T18:20:41.117Z,32.90
2018-05-06T18:23:09.554Z,33.40
2018-05-06T18:25:37.319Z,33.30
2018-05-06T18:28:05.504Z,33.40
2018-05-06T18:30:33.267Z,33.60
2018-05-06T18:33:00.987Z,33.70
2018-05-06T18:35:29.156Z,33.90
2018-05-06T18:37:57.210Z,34.10
2018-05-06T18:40:25.384Z,34.30
2018-05-06T18:42:53.333Z,34.30
2018-05-06T18:45:21.692Z,34.50
2018-05-06T18:47:49.966Z,34.60
2018-05-06T18:50:18.437Z,34.70
2018-05-06T18:52:46.997Z,34.70
2018-05-06T18:55:15.244Z,34.80
2018-05-06T18:57:43.629Z,34.90
2018-05-06T19:00:11.882Z,34.90
2018-05-06T19:02:40.561Z,35.10
2018-05-06T19:05:08.730Z,35.10
2018-05-06T19:07:37.309Z,35.30
2018-05-06T19:10:05.698Z,35.40
2018-05-06T19:12:33.603Z,35.60
2018-05-06T19:15:01.850Z,35.80
2018-05-06T19:17:30.468Z,35.90
2018-05-06T19:19:58.252Z,36.00
2018-05-06T19:22:26.931Z,36.20
2018-05-06T19:24:55.511Z,36.40
2018-05-06T19:27:23.537Z,36.50
2018-05-06T19:29:51.940Z,36.60
2018-05-06T19:32:19.872Z,36.70
2018-05-06T19:34:47.593Z,36.90
2018-05-06T19:37:15.478Z,36.90
2018-05-06T19:39:51.205Z,37.30
2018-05-06T19:42:19.402Z,37.40
2018-05-06T19:44:47.657Z,37.70
2018-05-06T19:47:15.683Z,37.80
2018-05-06T19:49:43.937Z,37.90
2018-05-06T19:52:13.900Z,38.20
2018-05-06T19:54:42.200Z,38.20
2018-05-06T19:57:11.245Z,38.60
2018-05-06T19:59:40.705Z,38.50
2018-05-06T20:02:09.394Z,38.70
2018-05-06T20:04:37.478Z,38.80
2018-05-06T20:07:05.955Z,38.90
2018-05-06T20:09:34.467Z,39.00
2018-05-06T20:12:04.232Z,39.20
2018-05-06T20:14:33.551Z,39.50
2018-05-06T20:17:02.400Z,39.70
2018-05-06T20:19:30.782Z,39.50
2018-05-06T20:21:58.790Z,39.80
2018-05-06T20:24:27.052Z,39.90
2018-05-06T20:26:55.212Z,40.00
2018-05-06T20:29:23.667Z,40.70
2018-05-06T20:31:53.106Z,40.20
2018-05-06T20:34:20.829Z,40.40
2018-05-06T20:36:49.031Z,40.80
2018-05-06T20:39:17.400Z,43.30
2018-05-06T20:41:45.600Z,41.50
2018-05-06T20:44:13.433Z,42.10
2018-05-06T20:46:41.048Z,40.90
2018-05-06T20:49:08.598Z,40.30
2018-05-06T20:51:36.470Z,39.80
2018-05-06T20:54:05.143Z,39.80
2018-05-06T20:56:32.936Z,39.80
2018-05-06T20:59:00.523Z,39.70
2018-05-06T21:01:28.172Z,39.90
2018-05-06T21:03:55.758Z,39.90
2018-05-06T21:06:23.254Z,40.30
2018-05-06T21:08:50.961Z,40.30
2018-05-06T21:11:18.495Z,40.20
2018-05-06T21:13:45.981Z,40.30
2018-05-06T21:16:13.636Z,40.40
2018-05-06T21:18:41.284Z,40.40
2018-05-06T21:21:08.998Z,40.60
2018-05-06T21:23:36.484Z,40.60
2018-05-06T21:26:04.039Z,40.90
2018-05-06T21:28:31.638Z,40.90
2018-05-06T21:30:59.555Z,41.60
2018-05-06T21:33:27.152Z,41.40
2018-05-06T21:35:54.997Z,41.30
2018-05-06T21:38:23.368Z,41.40
2018-05-06T21:40:52.556Z,41.30
2018-05-06T21:43:20.124Z,41.30
2018-05-06T21:45:47.824Z,40.80
2018-05-06T21:48:16.120Z,41.20
2018-05-06T21:50:44.419Z,41.20
2018-05-06T21:53:11.984Z,41.10
2018-05-06T21:55:40.256Z,40.60
2018-05-06T21:58:07.843Z,40.70
2018-05-06T22:00:36.103Z,40.90
2018-05-06T22:03:04.508Z,41.00
2018-05-06T22:05:32.092Z,41.00
2018-05-06T22:07:59.784Z,41.00
2018-05-06T22:10:27.337Z,41.00
2018-05-06T22:12:55.791Z,41.00
2018-05-06T22:15:23.518Z,41.00
2018-05-06T22:17:51.891Z,41.60
2018-05-06T22:20:20.614Z,41.60
2018-05-06T22:22:48.172Z,42.00
2018-05-06T22:25:15.669Z,42.30
2018-05-06T22:27:43.206Z,42.50
2018-05-06T22:30:11.489Z,43.10
2018-05-06T22:32:39.067Z,43.00
2018-05-06T22:35:07.358Z,43.50
2018-05-06T22:37:35.617Z,43.70
2018-05-06T22:40:03.147Z,43.60
2018-05-06T22:42:30.665Z,44.00
2018-05-06T22:44:58.351Z,44.20
2018-05-06T22:47:25.850Z,44.30
2018-05-06T22:49:53.393Z,44.30
2018-05-06T22:52:21.649Z,44.60
2018-05-06T22:54:49.355Z,44.60
2018-05-06T22:57:17.683Z,44.80
2018-05-06T22:59:45.207Z,44.70
2018-05-06T23:02:12.807Z,44.80
2018-05-06T23:04:40.294Z,44.90
2018-05-06T23:07:07.806Z,45.10
2018-05-06T23:09:35.310Z,45.20
2018-05-06T23:12:03.720Z,45.40
2018-05-06T23:14:31.356Z,45.40
2018-05-06T23:16:58.871Z,45.70
2018-05-06T23:19:26.350Z,45.70
2018-05-06T23:21:54.026Z,45.90
2018-05-06T23:24:21.876Z,46.00
2018-05-06T23:26:49.379Z,46.30
2018-05-06T23:29:16.945Z,46.30
2018-05-06T23:31:44.457Z,46.60
2018-05-06T23:34:12.020Z,47.10
2018-05-06T23:36:39.529Z,46.80
2018-05-06T23:39:07.059Z,47.00
2018-05-06T23:41:34.551Z,47.00
2018-05-06T23:44:02.836Z,47.40
2018-05-06T23:46:30.532Z,47.40
2018-05-06T23:48:58.059Z,47.60
2018-05-06T23:51:25.634Z,47.70
2018-05-06T23:53:53.144Z,47.80
2018-05-06T23:56:20.758Z,47.90
2018-05-06T23:58:48.315Z,48.00
